Pagrindinis puslapis
METAR-TAF:

METAR-TAF

Oro uostai :

Samas, Graikija

platuma: 37-42N, ilguma: 026-55E, Aukštis: 2 m

Dabartinis oras

Ataskaita buvo paskelbta 1 valandą ir 0 minutes, ne 08:50 UTC
Vėjas 7 kt iš Pietų/Pietryčių
Temperatūra 21°C
Drėgmė 64%
Slėgis 1010 hPa
Matomumas 10 km arba daugiau
Mažai debesys ne aukštis 1800 ft
Su prošvaistėmis ne aukštis 2500 ft

METAR: LGSM 130850Z 16007KT 9999 FEW018 BKN025 21/14 Q1010

Laikas: 12:50 (09:50 UTC)

Prognozė

Ataskaita buvo paskelbta 1 valandą ir 50 minutes, ne 08:00 UTC
Prognozė galioja nuo 13 metu 09 UTC su 13 metu 18 UTC
Vėjas 12 kt iš Pietų
Matomumas 10 km arba daugiau
Mažai debesys ne aukštis 2500 ft
Laikinai
nuo 13 metu 12 UTC su 13 metu 18 UTC
Vėjas 13 kt iš Pietų su gūsio iki 23 kt

TAF: LGSM 130800Z 1309/1318 17012KT 9999 FEW025 TEMPO 1312/1318 17013G23KT

Orai ataskaitas ir orų prognozės (METAR, TAF).

turimą stotys yra geltonos ir raudonos taškus žemėlapyje.

Perkelti pele per norėdami pamatyti stoties vardą.

Tada spustelėkite, norėdami matyti oro stebėjimo ir prognozės.

Norėdami pakeisti žemėlapį: spustelėkite ant žalios mygtukų su juodo kryžiaus žemyn,; žalią mygtuką su brūkšneliu, jei norite nutolinti; arba žalių rodyklių gretimoms žemėlapius.


METAR-TAF: